createdAt,value
2022-11-05T00:03:19.397Z,21.27
2022-11-05T00:08:43.921Z,20.73
2022-11-05T00:14:07.020Z,13.80
2022-11-05T00:19:13.737Z,21.73
2022-11-05T00:24:38.533Z,20.08
2022-11-05T00:29:44.572Z,17.88
2022-11-05T00:34:51.990Z,22.65
2022-11-05T00:39:59.595Z,21.35
2022-11-05T00:45:07.076Z,25.48
2022-11-05T00:50:17.761Z,24.75
2022-11-05T00:55:26.674Z,26.00
2022-11-05T01:00:34.280Z,26.53
2022-11-05T01:05:46.232Z,25.75
2022-11-05T01:10:56.815Z,22.77
2022-11-05T01:16:09.065Z,19.20
2022-11-05T01:21:19.451Z,25.05
2022-11-05T01:26:52.998Z,26.27
2022-11-05T01:31:59.888Z,21.80
2022-11-05T01:37:06.004Z,20.88
2022-11-05T01:42:23.612Z,18.23
2022-11-05T01:47:56.629Z,17.65
2022-11-05T01:53:17.512Z,22.08
2022-11-05T01:58:29.547Z,20.77
2022-11-05T02:03:36.236Z,24.48
2022-11-05T02:08:56.747Z,22.58
2022-11-05T02:14:05.120Z,21.40
2022-11-05T02:19:55.508Z,23.30
2022-11-05T02:25:29.365Z,22.45
2022-11-05T02:30:48.066Z,23.35
2022-11-05T02:36:17.427Z,19.27
2022-11-05T02:41:31.935Z,17.52
2022-11-05T02:46:51.372Z,22.55
2022-11-05T02:52:01.096Z,22.70
2022-11-05T02:57:07.775Z,19.08
2022-11-05T03:02:15.843Z,26.73
2022-11-05T03:07:43.503Z,30.17
2022-11-05T03:14:02.959Z,21.77
2022-11-05T03:19:19.095Z,21.73
2022-11-05T03:24:29.744Z,23.35
2022-11-05T03:29:39.948Z,24.73
2022-11-05T03:34:51.999Z,23.42
2022-11-05T03:40:02.470Z,21.00
2022-11-05T03:45:17.195Z,20.27
2022-11-05T03:50:38.488Z,22.05
2022-11-05T03:55:54.211Z,22.55
2022-11-05T04:01:03.505Z,20.88
2022-11-05T04:06:30.074Z,22.50
2022-11-05T04:11:54.958Z,22.40
2022-11-05T04:17:10.198Z,23.30
2022-11-05T04:22:35.352Z,25.67
2022-11-05T04:27:41.492Z,22.17
2022-11-05T04:33:06.744Z,22.02
2022-11-05T04:38:18.652Z,24.33
2022-11-05T04:43:24.819Z,25.50
2022-11-05T04:48:30.976Z,28.17
2022-11-05T04:53:38.785Z,23.27
2022-11-05T04:58:45.610Z,25.27
2022-11-05T05:03:53.005Z,22.83
2022-11-05T05:09:00.555Z,25.20
2022-11-05T05:14:06.596Z,19.38
2022-11-05T05:19:12.901Z,22.55
2022-11-05T05:24:25.206Z,23.55
2022-11-05T05:29:31.309Z,33.10
2022-11-05T05:34:38.745Z,26.48
2022-11-05T05:39:48.138Z,25.02
2022-11-05T05:44:54.187Z,25.98
2022-11-05T05:50:00.469Z,26.80
2022-11-05T05:55:10.062Z,25.80
2022-11-05T06:00:17.115Z,23.52
2022-11-05T06:05:23.164Z,23.77
2022-11-05T06:10:30.612Z,25.42
2022-11-05T06:15:37.179Z,27.17
2022-11-05T06:20:43.365Z,27.55
2022-11-05T06:25:51.033Z,26.75
2022-11-05T06:30:57.270Z,29.65
2022-11-05T06:36:04.944Z,23.25
2022-11-05T06:41:12.912Z,28.75
2022-11-05T06:46:18.987Z,26.23
2022-11-05T06:51:25.829Z,27.45
2022-11-05T06:56:33.528Z,36.33
2022-11-05T07:01:39.852Z,36.40
2022-11-05T07:06:46.171Z,30.10
2022-11-05T07:11:53.603Z,32.25
2022-11-05T07:16:59.792Z,29.42
2022-11-05T07:22:06.891Z,35.22
2022-11-05T07:27:14.889Z,25.85
2022-11-05T07:32:21.249Z,29.85
2022-11-05T07:37:27.546Z,38.72
2022-11-05T07:42:36.956Z,31.17
2022-11-05T07:47:49.123Z,31.92
2022-11-05T07:52:55.561Z,31.15
2022-11-05T07:58:03.184Z,30.73
2022-11-05T08:03:14.249Z,31.80
2022-11-05T08:08:21.952Z,29.73
2022-11-05T08:13:29.679Z,26.50
2022-11-05T08:18:36.273Z,32.67
2022-11-05T08:23:43.324Z,31.40
2022-11-05T08:28:50.894Z,33.15
2022-11-05T08:34:01.363Z,26.55
2022-11-05T08:39:14.288Z,24.58
2022-11-05T08:44:24.472Z,25.88
2022-11-05T08:49:30.746Z,25.55
2022-11-05T08:54:37.190Z,28.08
2022-11-05T08:59:44.600Z,25.17
2022-11-05T09:04:52.013Z,24.92
2022-11-05T09:09:58.298Z,23.65
2022-11-05T09:15:06.797Z,24.67
2022-11-05T09:20:13.990Z,29.17
2022-11-05T09:25:20.183Z,25.05
2022-11-05T09:30:27.589Z,23.60
2022-11-05T09:35:33.895Z,24.48
2022-11-05T09:40:44.334Z,28.48
2022-11-05T09:45:57.478Z,25.05
2022-11-05T09:51:05.603Z,31.80
2022-11-05T09:56:25.462Z,27.60
2022-11-05T10:01:37.104Z,31.13
2022-11-05T10:06:59.179Z,25.67
2022-11-05T10:12:13.419Z,23.95
2022-11-05T10:17:27.222Z,29.23
2022-11-05T10:22:33.170Z,29.58
2022-11-05T10:27:40.274Z,26.13
2022-11-05T10:32:49.916Z,27.83
2022-11-05T10:37:55.957Z,30.00
2022-11-05T10:43:08.401Z,28.55
2022-11-05T10:48:45.156Z,31.85
2022-11-05T10:54:01.700Z,30.73
2022-11-05T10:59:22.199Z,27.60
2022-11-05T11:04:37.448Z,34.58
2022-11-05T11:09:51.246Z,33.10
2022-11-05T11:15:03.887Z,31.48
2022-11-05T11:20:29.338Z,40.42
2022-11-05T11:25:47.669Z,33.72
2022-11-05T11:31:04.004Z,33.90
2022-11-05T11:36:14.713Z,33.13
2022-11-05T11:41:30.664Z,26.40
2022-11-05T11:56:10.809Z,32.33
2022-11-05T12:02:08.052Z,27.90
2022-11-05T12:07:33.994Z,28.83
2022-11-05T12:12:51.150Z,28.57
2022-11-05T12:18:05.157Z,28.80
2022-11-05T12:23:32.347Z,28.85
2022-11-05T12:29:18.367Z,38.92
2022-11-05T12:34:44.316Z,32.90
2022-11-05T12:40:15.825Z,40.20
2022-11-05T12:45:40.807Z,49.72
2022-11-05T12:50:54.495Z,68.53
2022-11-05T12:56:11.282Z,63.60
2022-11-05T13:01:25.091Z,58.88
2022-11-05T13:06:43.012Z,67.50
2022-11-05T13:11:55.141Z,52.13
2022-11-05T13:17:09.719Z,36.53
2022-11-05T13:28:40.750Z,42.35
2022-11-05T13:33:50.522Z,42.88
2022-11-05T13:39:07.417Z,52.65
2022-11-05T13:44:43.998Z,52.60
2022-11-05T13:50:25.517Z,54.65
2022-11-05T13:55:58.906Z,51.72
2022-11-05T14:01:18.847Z,44.75
2022-11-05T14:06:29.462Z,42.28
2022-11-05T14:11:39.465Z,34.33
2022-11-05T14:16:54.361Z,36.05
2022-11-05T14:22:01.759Z,37.22
2022-11-05T14:27:52.558Z,31.65
2022-11-05T14:33:15.740Z,35.30
2022-11-05T14:38:26.450Z,33.58
2022-11-05T14:43:36.615Z,35.90
2022-11-05T14:48:50.147Z,32.80
2022-11-05T14:54:06.124Z,28.52
2022-11-05T14:59:37.026Z,28.65
2022-11-05T15:04:48.208Z,28.52
2022-11-05T15:10:07.142Z,28.00
2022-11-05T15:15:24.671Z,26.90
2022-11-05T15:20:40.701Z,35.97
2022-11-05T15:25:53.832Z,22.17
2022-11-05T15:31:04.465Z,27.58
2022-11-05T15:36:30.108Z,25.55
2022-11-05T15:41:38.674Z,27.63
2022-11-05T15:46:46.998Z,30.92
2022-11-05T15:51:55.910Z,28.10
2022-11-05T15:57:03.074Z,23.98
2022-11-05T16:02:33.754Z,25.95
2022-11-05T16:07:44.541Z,24.25
2022-11-05T16:12:59.626Z,21.13
2022-11-05T16:18:24.627Z,22.45
2022-11-05T16:23:47.194Z,21.77
2022-11-05T16:28:55.076Z,22.27
2022-11-05T16:34:02.711Z,22.27
2022-11-05T16:39:12.185Z,20.50
2022-11-05T16:44:20.361Z,18.58
2022-11-05T16:49:28.109Z,16.20
2022-11-05T16:54:36.674Z,16.13
2022-11-05T16:59:45.472Z,18.20
2022-11-05T17:04:54.303Z,20.38
2022-11-05T17:10:03.665Z,16.48
2022-11-05T17:15:21.467Z,11.18
2022-11-05T17:20:40.764Z,14.10
2022-11-05T17:25:53.173Z,11.77
2022-11-05T17:31:02.609Z,10.30
2022-11-05T17:36:15.683Z,8.32
2022-11-05T17:41:26.628Z,10.07
2022-11-05T17:46:34.357Z,10.00
2022-11-05T17:51:41.709Z,7.75
2022-11-05T17:56:50.305Z,8.63
2022-11-05T18:01:58.862Z,6.97
2022-11-05T18:07:09.698Z,5.15
2022-11-05T18:12:19.223Z,10.68
2022-11-05T18:22:37.311Z,7.38
2022-11-05T18:27:47.338Z,9.95
2022-11-05T18:32:56.211Z,9.02
2022-11-05T18:38:06.239Z,8.77
2022-11-05T18:43:17.320Z,11.57
2022-11-05T18:48:25.212Z,9.52
2022-11-05T18:53:33.874Z,9.00
2022-11-05T18:58:45.356Z,6.95
2022-11-05T19:03:58.213Z,8.10
2022-11-05T19:09:12.777Z,11.25
2022-11-05T19:14:34.438Z,10.48
2022-11-05T19:19:42.214Z,11.82
2022-11-05T19:24:52.540Z,7.80
2022-11-05T19:30:02.450Z,14.13
2022-11-05T19:35:11.785Z,10.93
2022-11-05T19:40:20.133Z,9.65
2022-11-05T19:45:44.209Z,10.55
2022-11-05T19:50:52.308Z,13.40
2022-11-05T19:56:00.657Z,8.13
2022-11-05T20:01:11.783Z,10.70
2022-11-05T20:06:24.923Z,10.52
2022-11-05T20:11:32.861Z,10.15
2022-11-05T20:16:42.513Z,13.25
2022-11-05T20:21:51.622Z,9.45
2022-11-05T20:26:59.891Z,12.00
2022-11-05T20:32:09.580Z,13.27
2022-11-05T20:37:16.871Z,10.88
2022-11-05T20:42:25.180Z,8.55
2022-11-05T20:47:35.831Z,16.65
2022-11-05T20:52:44.422Z,8.18
2022-11-05T20:57:51.354Z,13.13
2022-11-05T21:03:01.678Z,9.15
2022-11-05T21:08:09.986Z,9.68
2022-11-05T21:13:18.468Z,14.20
2022-11-05T21:18:33.836Z,18.77
2022-11-05T21:23:42.983Z,8.77
2022-11-05T21:28:52.614Z,11.40
2022-11-05T21:34:01.071Z,14.25
2022-11-05T21:39:13.207Z,12.53
2022-11-05T21:44:20.912Z,10.27
2022-11-05T21:49:29.628Z,11.50
2022-11-05T21:54:54.067Z,12.35
2022-11-05T22:00:01.852Z,13.75
2022-11-05T22:05:15.322Z,10.10
2022-11-05T22:10:22.770Z,13.30
2022-11-05T22:15:30.169Z,16.50
2022-11-05T22:20:40.518Z,13.55
2022-11-05T22:25:47.324Z,12.63
2022-11-05T22:30:54.035Z,11.57
2022-11-05T22:36:02.045Z,13.02
2022-11-05T22:41:13.309Z,10.17
2022-11-05T22:46:22.819Z,11.43
2022-11-05T22:51:33.412Z,9.48
2022-11-05T22:56:43.189Z,6.80
2022-11-05T23:01:50.000Z,7.82
2022-11-05T23:07:15.509Z,8.70
2022-11-05T23:12:27.410Z,7.43
2022-11-05T23:17:51.399Z,6.55
2022-11-05T23:23:17.550Z,5.95
2022-11-05T23:28:24.343Z,4.65
2022-11-05T23:33:34.828Z,4.50
2022-11-05T23:38:42.742Z,3.88
2022-11-05T23:44:08.641Z,4.55
2022-11-05T23:49:15.160Z,9.20
2022-11-05T23:54:23.555Z,6.97
2022-11-05T23:59:29.828Z,7.57
